sensor_id;sensor_type;location;lat;lon;timestamp;temperature;humidity
47540;DHT22;33280;52.152;21.052;2023-09-12T00:09:50;19.10;99.90
47540;DHT22;33280;52.152;21.052;2023-09-12T00:12:46;19.10;99.90
47540;DHT22;33280;52.152;21.052;2023-09-12T00:16:31;19.10;99.90
47540;DHT22;33280;52.152;21.052;2023-09-12T00:19:31;19.00;99.90
47540;DHT22;33280;52.152;21.052;2023-09-12T00:22:47;19.10;99.90
47540;DHT22;33280;52.152;21.052;2023-09-12T00:42:47;18.80;99.90
47540;DHT22;33280;52.152;21.052;2023-09-12T00:46:14;18.70;99.90
47540;DHT22;33280;52.152;21.052;2023-09-12T00:56:33;18.50;99.90
47540;DHT22;33280;52.152;21.052;2023-09-12T00:59:37;18.50;99.90
47540;DHT22;33280;52.152;21.052;2023-09-12T01:03:00;18.50;99.90
47540;DHT22;33280;52.152;21.052;2023-09-12T01:09:05;18.40;99.90
47540;DHT22;33280;52.152;21.052;2023-09-12T01:12:10;18.40;99.90
47540;DHT22;33280;52.152;21.052;2023-09-12T01:15:19;18.30;99.90
47540;DHT22;33280;52.152;21.052;2023-09-12T01:17:51;18.30;99.90
47540;DHT22;33280;52.152;21.052;2023-09-12T01:27:42;18.20;99.90
47540;DHT22;33280;52.152;21.052;2023-09-12T01:30:29;18.20;99.90
47540;DHT22;33280;52.152;21.052;2023-09-12T01:33:24;18.20;99.90
47540;DHT22;33280;52.152;21.052;2023-09-12T01:36:16;18.20;99.90
47540;DHT22;33280;52.152;21.052;2023-09-12T01:39:13;18.10;99.90
47540;DHT22;33280;52.152;21.052;2023-09-12T01:42:35;18.10;99.90
47540;DHT22;33280;52.152;21.052;2023-09-12T01:45:23;18.10;99.90
47540;DHT22;33280;52.152;21.052;2023-09-12T01:48:28;18.00;99.90
47540;DHT22;33280;52.152;21.052;2023-09-12T01:51:09;18.10;99.90
47540;DHT22;33280;52.152;21.052;2023-09-12T01:54:10;18.10;99.90
47540;DHT22;33280;52.152;21.052;2023-09-12T01:57:05;18.10;99.90
47540;DHT22;33280;52.152;21.052;2023-09-12T02:00:04;18.10;99.90
47540;DHT22;33280;52.152;21.052;2023-09-12T02:03:06;18.10;99.90
47540;DHT22;33280;52.152;21.052;2023-09-12T02:06:24;18.10;99.90
47540;DHT22;33280;52.152;21.052;2023-09-12T02:09:27;18.00;99.90
47540;DHT22;33280;52.152;21.052;2023-09-12T02:12:07;17.90;99.90
47540;DHT22;33280;52.152;21.052;2023-09-12T02:15:34;17.90;99.90
47540;DHT22;33280;52.152;21.052;2023-09-12T02:18:24;17.90;99.90
47540;DHT22;33280;52.152;21.052;2023-09-12T02:24:57;17.90;99.90
47540;DHT22;33280;52.152;21.052;2023-09-12T02:30:59;17.90;99.90
47540;DHT22;33280;52.152;21.052;2023-09-12T02:33:32;17.90;99.90
47540;DHT22;33280;52.152;21.052;2023-09-12T02:35:59;17.80;99.90
47540;DHT22;33280;52.152;21.052;2023-09-12T02:39:04;17.80;99.90
47540;DHT22;33280;52.152;21.052;2023-09-12T02:41:48;17.70;99.90
47540;DHT22;33280;52.152;21.052;2023-09-12T02:44:58;17.70;99.90
47540;DHT22;33280;52.152;21.052;2023-09-12T02:48:11;17.70;99.90
47540;DHT22;33280;52.152;21.052;2023-09-12T02:51:17;17.70;99.90
47540;DHT22;33280;52.152;21.052;2023-09-12T02:54:04;17.60;99.90
47540;DHT22;33280;52.152;21.052;2023-09-12T02:56:58;17.60;99.90
47540;DHT22;33280;52.152;21.052;2023-09-12T02:59:48;17.60;99.90
47540;DHT22;33280;52.152;21.052;2023-09-12T03:02:56;17.50;99.90
47540;DHT22;33280;52.152;21.052;2023-09-12T03:05:56;17.60;99.90
47540;DHT22;33280;52.152;21.052;2023-09-12T03:08:30;17.50;99.90
47540;DHT22;33280;52.152;21.052;2023-09-12T03:11:16;17.50;99.90
47540;DHT22;33280;52.152;21.052;2023-09-12T03:13:53;17.40;99.90
47540;DHT22;33280;52.152;21.052;2023-09-12T03:16:46;17.40;99.90
47540;DHT22;33280;52.152;21.052;2023-09-12T03:19:30;17.30;99.90
47540;DHT22;33280;52.152;21.052;2023-09-12T03:22:20;17.20;99.90
47540;DHT22;33280;52.152;21.052;2023-09-12T03:24:49;17.40;99.90
47540;DHT22;33280;52.152;21.052;2023-09-12T03:27:52;17.30;99.90
47540;DHT22;33280;52.152;21.052;2023-09-12T03:30:28;17.30;99.90
47540;DHT22;33280;52.152;21.052;2023-09-12T03:33:25;17.40;99.90
47540;DHT22;33280;52.152;21.052;2023-09-12T03:35:56;17.20;99.90
47540;DHT22;33280;52.152;21.052;2023-09-12T03:38:35;17.20;99.90
47540;DHT22;33280;52.152;21.052;2023-09-12T03:41:10;17.30;99.90
47540;DHT22;33280;52.152;21.052;2023-09-12T03:43:44;17.20;99.90
47540;DHT22;33280;52.152;21.052;2023-09-12T03:46:36;17.10;99.90
47540;DHT22;33280;52.152;21.052;2023-09-12T03:49:08;17.10;99.90
47540;DHT22;33280;52.152;21.052;2023-09-12T03:51:39;17.10;99.90
47540;DHT22;33280;52.152;21.052;2023-09-12T03:54:30;17.10;99.90
47540;DHT22;33280;52.152;21.052;2023-09-12T03:57:20;17.00;99.90
47540;DHT22;33280;52.152;21.052;2023-09-12T03:59:53;17.10;99.90
47540;DHT22;33280;52.152;21.052;2023-09-12T04:02:28;17.00;99.90
47540;DHT22;33280;52.152;21.052;2023-09-12T04:05:50;17.10;99.90
47540;DHT22;33280;52.152;21.052;2023-09-12T04:08:32;17.00;99.90
47540;DHT22;33280;52.152;21.052;2023-09-12T04:11:16;17.00;99.90
47540;DHT22;33280;52.152;21.052;2023-09-12T04:14:19;17.00;99.90
47540;DHT22;33280;52.152;21.052;2023-09-12T04:16:51;16.90;99.90
47540;DHT22;33280;52.152;21.052;2023-09-12T04:19:48;17.00;99.90
47540;DHT22;33280;52.152;21.052;2023-09-12T04:22:25;17.00;99.90
47540;DHT22;33280;52.152;21.052;2023-09-12T04:25:10;17.00;99.90
47540;DHT22;33280;52.152;21.052;2023-09-12T04:28:01;16.90;99.90
47540;DHT22;33280;52.152;21.052;2023-09-12T04:31:19;16.90;99.90
47540;DHT22;33280;52.152;21.052;2023-09-12T04:33:55;16.80;99.90
47540;DHT22;33280;52.152;21.052;2023-09-12T04:36:29;16.90;99.90
47540;DHT22;33280;52.152;21.052;2023-09-12T04:39:00;16.90;99.90
47540;DHT22;33280;52.152;21.052;2023-09-12T04:41:29;17.00;99.90
47540;DHT22;33280;52.152;21.052;2023-09-12T04:44:01;17.00;99.90
47540;DHT22;33280;52.152;21.052;2023-09-12T04:46:30;16.90;99.90
47540;DHT22;33280;52.152;21.052;2023-09-12T04:49:03;17.20;99.90
47540;DHT22;33280;52.152;21.052;2023-09-12T04:51:33;17.20;99.90
47540;DHT22;33280;52.152;21.052;2023-09-12T04:54:07;17.30;99.90
47540;DHT22;33280;52.152;21.052;2023-09-12T04:56:38;17.30;99.90
47540;DHT22;33280;52.152;21.052;2023-09-12T04:59:13;17.40;99.90
47540;DHT22;33280;52.152;21.052;2023-09-12T05:01:48;17.40;99.90
47540;DHT22;33280;52.152;21.052;2023-09-12T05:04:21;17.50;99.90
47540;DHT22;33280;52.152;21.052;2023-09-12T05:06:50;17.60;99.90
47540;DHT22;33280;52.152;21.052;2023-09-12T05:09:21;17.70;99.90
47540;DHT22;33280;52.152;21.052;2023-09-12T05:11:55;17.70;99.90
47540;DHT22;33280;52.152;21.052;2023-09-12T05:14:28;17.80;99.90
47540;DHT22;33280;52.152;21.052;2023-09-12T05:16:57;17.90;99.90
47540;DHT22;33280;52.152;21.052;2023-09-12T05:19:27;17.90;99.90
47540;DHT22;33280;52.152;21.052;2023-09-12T05:21:55;18.00;99.90
47540;DHT22;33280;52.152;21.052;2023-09-12T05:24:24;18.00;99.90
47540;DHT22;33280;52.152;21.052;2023-09-12T05:26:59;18.10;99.90
47540;DHT22;33280;52.152;21.052;2023-09-12T05:29:32;18.20;99.90
47540;DHT22;33280;52.152;21.052;2023-09-12T05:32:03;18.20;99.90
47540;DHT22;33280;52.152;21.052;2023-09-12T05:34:32;18.20;99.90
47540;DHT22;33280;52.152;21.052;2023-09-12T05:37:02;18.40;99.90
47540;DHT22;33280;52.152;21.052;2023-09-12T05:39:37;18.40;99.90
47540;DHT22;33280;52.152;21.052;2023-09-12T05:42:12;18.40;99.90
47540;DHT22;33280;52.152;21.052;2023-09-12T05:44:48;18.50;99.90
47540;DHT22;33280;52.152;21.052;2023-09-12T05:47:17;18.40;99.90
47540;DHT22;33280;52.152;21.052;2023-09-12T05:49:47;18.60;99.90
47540;DHT22;33280;52.152;21.052;2023-09-12T05:52:18;18.70;99.90
47540;DHT22;33280;52.152;21.052;2023-09-12T05:54:46;18.80;99.90
47540;DHT22;33280;52.152;21.052;2023-09-12T05:57:17;18.90;99.90
47540;DHT22;33280;52.152;21.052;2023-09-12T05:59:46;18.90;99.90
47540;DHT22;33280;52.152;21.052;2023-09-12T06:02:21;18.80;99.90
47540;DHT22;33280;52.152;21.052;2023-09-12T06:04:53;19.00;99.90
47540;DHT22;33280;52.152;21.052;2023-09-12T06:07:22;19.00;99.90
47540;DHT22;33280;52.152;21.052;2023-09-12T06:10:01;19.00;99.90
47540;DHT22;33280;52.152;21.052;2023-09-12T06:12:29;19.10;99.90
47540;DHT22;33280;52.152;21.052;2023-09-12T06:14:57;19.20;99.90
47540;DHT22;33280;52.152;21.052;2023-09-12T06:17:28;19.20;99.90
47540;DHT22;33280;52.152;21.052;2023-09-12T06:19:56;19.30;99.90
47540;DHT22;33280;52.152;21.052;2023-09-12T06:22:24;19.40;99.90
47540;DHT22;33280;52.152;21.052;2023-09-12T06:24:59;19.60;99.90
47540;DHT22;33280;52.152;21.052;2023-09-12T06:27:29;19.70;99.90
47540;DHT22;33280;52.152;21.052;2023-09-12T06:30:01;19.70;99.90
47540;DHT22;33280;52.152;21.052;2023-09-12T06:32:34;20.00;99.90
47540;DHT22;33280;52.152;21.052;2023-09-12T15:32:22;29.50;77.50
47540;DHT22;33280;52.152;21.052;2023-09-12T15:34:50;29.40;77.50
47540;DHT22;33280;52.152;21.052;2023-09-12T15:37:21;29.40;78.10
47540;DHT22;33280;52.152;21.052;2023-09-12T15:39:49;29.30;77.90
47540;DHT22;33280;52.152;21.052;2023-09-12T15:42:20;29.30;79.00
47540;DHT22;33280;52.152;21.052;2023-09-12T15:45:04;29.20;79.10
47540;DHT22;33280;52.152;21.052;2023-09-12T15:47:39;29.00;79.10
47540;DHT22;33280;52.152;21.052;2023-09-12T15:53:38;28.90;80.10
47540;DHT22;33280;52.152;21.052;2023-09-12T15:56:10;28.90;80.60
47540;DHT22;33280;52.152;21.052;2023-09-12T15:58:46;28.80;80.90
47540;DHT22;33280;52.152;21.052;2023-09-12T16:01:20;28.70;81.20
47540;DHT22;33280;52.152;21.052;2023-09-12T16:03:47;28.70;81.70
47540;DHT22;33280;52.152;21.052;2023-09-12T16:06:16;28.60;81.70
47540;DHT22;33280;52.152;21.052;2023-09-12T16:08:45;28.50;82.50
47540;DHT22;33280;52.152;21.052;2023-09-12T16:11:15;28.50;83.00
47540;DHT22;33280;52.152;21.052;2023-09-12T19:50:40;22.50;99.90
47540;DHT22;33280;52.152;21.052;2023-09-12T19:53:25;22.40;99.90
47540;DHT22;33280;52.152;21.052;2023-09-12T19:55:57;22.30;99.90
47540;DHT22;33280;52.152;21.052;2023-09-12T19:58:35;22.20;99.90
47540;DHT22;33280;52.152;21.052;2023-09-12T20:01:07;22.00;99.90
47540;DHT22;33280;52.152;21.052;2023-09-12T20:03:35;22.00;99.90
47540;DHT22;33280;52.152;21.052;2023-09-12T20:06:06;21.90;99.90
47540;DHT22;33280;52.152;21.052;2023-09-12T20:08:49;21.90;99.90
47540;DHT22;33280;52.152;21.052;2023-09-12T20:11:22;21.80;99.90
47540;DHT22;33280;52.152;21.052;2023-09-12T20:14:10;21.80;99.90
47540;DHT22;33280;52.152;21.052;2023-09-12T20:16:52;21.70;99.90
47540;DHT22;33280;52.152;21.052;2023-09-12T20:20:19;21.70;99.90
47540;DHT22;33280;52.152;21.052;2023-09-12T20:47:58;21.00;99.90
47540;DHT22;33280;52.152;21.052;2023-09-12T20:50:49;21.00;99.90
47540;DHT22;33280;52.152;21.052;2023-09-12T20:53:45;21.00;99.90
47540;DHT22;33280;52.152;21.052;2023-09-12T20:59:49;20.70;99.90
47540;DHT22;33280;52.152;21.052;2023-09-12T21:07:02;20.80;99.90
47540;DHT22;33280;52.152;21.052;2023-09-12T21:12:47;20.70;99.90
47540;DHT22;33280;52.152;21.052;2023-09-12T21:16:11;20.70;99.90
47540;DHT22;33280;52.152;21.052;2023-09-12T21:20:27;20.60;99.90
47540;DHT22;33280;52.152;21.052;2023-09-12T21:24:09;20.60;99.90
47540;DHT22;33280;52.152;21.052;2023-09-12T21:41:46;20.20;99.90
47540;DHT22;33280;52.152;21.052;2023-09-12T21:45:14;20.20;99.90
47540;DHT22;33280;52.152;21.052;2023-09-12T22:39:11;19.50;99.90
47540;DHT22;33280;52.152;21.052;2023-09-12T22:57:01;19.30;99.90
47540;DHT22;33280;52.152;21.052;2023-09-12T23:22:53;18.90;99.90
47540;DHT22;33280;52.152;21.052;2023-09-12T23:29:43;19.00;99.90
47540;DHT22;33280;52.152;21.052;2023-09-12T23:33:16;19.00;99.90
